sensor_id;sensor_type;location;lat;lon;timestamp;P1;durP1;ratioP1;P2;durP2;ratioP2
31308;SDS011;17936;52.446;10.840;2023-05-10T00:02:23;4.82;;;2.67;;
31308;SDS011;17936;52.446;10.840;2023-05-10T00:04:49;4.60;;;2.65;;
31308;SDS011;17936;52.446;10.840;2023-05-10T00:07:15;5.95;;;2.85;;
31308;SDS011;17936;52.446;10.840;2023-05-10T00:09:42;4.35;;;2.50;;
31308;SDS011;17936;52.446;10.840;2023-05-10T00:12:08;5.03;;;2.92;;
31308;SDS011;17936;52.446;10.840;2023-05-10T00:14:33;4.28;;;2.45;;
31308;SDS011;17936;52.446;10.840;2023-05-10T00:16:59;5.72;;;2.72;;
31308;SDS011;17936;52.446;10.840;2023-05-10T00:19:25;4.53;;;2.55;;
31308;SDS011;17936;52.446;10.840;2023-05-10T00:21:50;4.28;;;2.80;;
31308;SDS011;17936;52.446;10.840;2023-05-10T00:24:16;6.45;;;2.63;;
31308;SDS011;17936;52.446;10.840;2023-05-10T00:26:41;6.90;;;2.63;;
31308;SDS011;17936;52.446;10.840;2023-05-10T00:29:07;6.25;;;2.70;;
31308;SDS011;17936;52.446;10.840;2023-05-10T00:31:32;4.25;;;2.75;;
31308;SDS011;17936;52.446;10.840;2023-05-10T00:33:58;3.25;;;2.40;;
31308;SDS011;17936;52.446;10.840;2023-05-10T00:36:23;4.25;;;2.75;;
31308;SDS011;17936;52.446;10.840;2023-05-10T00:38:49;9.15;;;2.60;;
31308;SDS011;17936;52.446;10.840;2023-05-10T00:41:14;7.22;;;2.67;;
31308;SDS011;17936;52.446;10.840;2023-05-10T00:43:40;6.93;;;3.13;;
31308;SDS011;17936;52.446;10.840;2023-05-10T00:46:06;3.40;;;2.40;;
31308;SDS011;17936;52.446;10.840;2023-05-10T00:48:32;3.67;;;2.20;;
31308;SDS011;17936;52.446;10.840;2023-05-10T00:50:57;6.18;;;2.88;;
31308;SDS011;17936;52.446;10.840;2023-05-10T00:53:24;4.32;;;3.00;;
31308;SDS011;17936;52.446;10.840;2023-05-10T00:55:49;4.97;;;2.78;;
31308;SDS011;17936;52.446;10.840;2023-05-10T00:58:15;4.97;;;2.78;;
31308;SDS011;17936;52.446;10.840;2023-05-10T01:00:42;13.07;;;3.22;;
31308;SDS011;17936;52.446;10.840;2023-05-10T01:03:10;5.22;;;3.00;;
31308;SDS011;17936;52.446;10.840;2023-05-10T01:05:36;7.97;;;3.08;;
31308;SDS011;17936;52.446;10.840;2023-05-10T01:08:02;5.40;;;3.08;;
31308;SDS011;17936;52.446;10.840;2023-05-10T01:10:28;4.78;;;2.75;;
31308;SDS011;17936;52.446;10.840;2023-05-10T01:12:54;8.00;;;3.33;;
31308;SDS011;17936;52.446;10.840;2023-05-10T01:15:20;4.30;;;2.72;;
31308;SDS011;17936;52.446;10.840;2023-05-10T01:17:47;5.65;;;3.00;;
31308;SDS011;17936;52.446;10.840;2023-05-10T01:20:13;8.88;;;2.85;;
31308;SDS011;17936;52.446;10.840;2023-05-10T01:31:00;4.57;;;2.67;;
31308;SDS011;17936;52.446;10.840;2023-05-10T01:33:35;5.20;;;3.13;;
31308;SDS011;17936;52.446;10.840;2023-05-10T01:41:59;4.57;;;3.10;;
31308;SDS011;17936;52.446;10.840;2023-05-10T01:44:38;5.15;;;3.08;;
31308;SDS011;17936;52.446;10.840;2023-05-10T01:47:11;3.83;;;2.78;;
31308;SDS011;17936;52.446;10.840;2023-05-10T01:49:43;8.65;;;2.67;;
31308;SDS011;17936;52.446;10.840;2023-05-10T01:52:14;5.70;;;2.95;;
31308;SDS011;17936;52.446;10.840;2023-05-10T01:54:48;7.07;;;3.00;;
31308;SDS011;17936;52.446;10.840;2023-05-10T01:57:18;5.85;;;3.13;;
31308;SDS011;17936;52.446;10.840;2023-05-10T01:59:46;4.25;;;2.88;;
31308;SDS011;17936;52.446;10.840;2023-05-10T02:02:14;5.00;;;3.05;;
31308;SDS011;17936;52.446;10.840;2023-05-10T02:04:42;6.75;;;3.13;;
31308;SDS011;17936;52.446;10.840;2023-05-10T02:07:09;4.55;;;2.72;;
31308;SDS011;17936;52.446;10.840;2023-05-10T02:09:36;4.70;;;2.90;;
31308;SDS011;17936;52.446;10.840;2023-05-10T02:12:03;6.80;;;2.92;;
31308;SDS011;17936;52.446;10.840;2023-05-10T02:14:32;5.90;;;3.38;;
31308;SDS011;17936;52.446;10.840;2023-05-10T02:17:01;5.00;;;2.63;;
31308;SDS011;17936;52.446;10.840;2023-05-10T02:19:29;5.97;;;2.75;;
31308;SDS011;17936;52.446;10.840;2023-05-10T02:21:56;5.05;;;2.88;;
31308;SDS011;17936;52.446;10.840;2023-05-10T02:24:23;7.18;;;3.00;;
31308;SDS011;17936;52.446;10.840;2023-05-10T02:26:50;4.68;;;3.05;;
31308;SDS011;17936;52.446;10.840;2023-05-10T02:29:18;5.25;;;3.10;;
31308;SDS011;17936;52.446;10.840;2023-05-10T02:31:44;6.25;;;2.75;;
31308;SDS011;17936;52.446;10.840;2023-05-10T02:34:10;5.15;;;3.00;;
31308;SDS011;17936;52.446;10.840;2023-05-10T02:36:37;5.57;;;3.03;;
31308;SDS011;17936;52.446;10.840;2023-05-10T02:39:04;5.40;;;3.22;;
31308;SDS011;17936;52.446;10.840;2023-05-10T02:41:34;5.45;;;2.88;;
31308;SDS011;17936;52.446;10.840;2023-05-10T02:44:01;5.07;;;2.63;;
31308;SDS011;17936;52.446;10.840;2023-05-10T02:46:28;4.43;;;3.10;;
31308;SDS011;17936;52.446;10.840;2023-05-10T02:48:54;5.80;;;3.05;;
31308;SDS011;17936;52.446;10.840;2023-05-10T02:51:20;4.68;;;2.83;;
31308;SDS011;17936;52.446;10.840;2023-05-10T02:53:53;4.63;;;2.90;;
31308;SDS011;17936;52.446;10.840;2023-05-10T02:56:22;5.35;;;2.97;;
31308;SDS011;17936;52.446;10.840;2023-05-10T02:58:50;6.07;;;3.05;;
31308;SDS011;17936;52.446;10.840;2023-05-10T03:01:17;4.07;;;3.00;;
31308;SDS011;17936;52.446;10.840;2023-05-10T03:03:42;8.38;;;3.35;;
31308;SDS011;17936;52.446;10.840;2023-05-10T03:06:08;4.13;;;2.53;;
31308;SDS011;17936;52.446;10.840;2023-05-10T03:08:34;5.10;;;3.22;;
31308;SDS011;17936;52.446;10.840;2023-05-10T03:11:14;4.40;;;2.88;;
31308;SDS011;17936;52.446;10.840;2023-05-10T03:14:16;5.10;;;2.80;;
31308;SDS011;17936;52.446;10.840;2023-05-10T03:16:46;4.78;;;3.05;;
31308;SDS011;17936;52.446;10.840;2023-05-10T03:19:18;5.88;;;3.28;;
31308;SDS011;17936;52.446;10.840;2023-05-10T03:21:49;5.72;;;3.28;;
31308;SDS011;17936;52.446;10.840;2023-05-10T03:24:18;5.63;;;2.97;;
31308;SDS011;17936;52.446;10.840;2023-05-10T03:26:47;10.35;;;3.50;;
31308;SDS011;17936;52.446;10.840;2023-05-10T03:29:13;5.65;;;3.33;;
31308;SDS011;17936;52.446;10.840;2023-05-10T03:31:40;5.70;;;3.35;;
31308;SDS011;17936;52.446;10.840;2023-05-10T03:34:06;5.10;;;3.28;;
31308;SDS011;17936;52.446;10.840;2023-05-10T03:36:32;6.15;;;3.58;;
31308;SDS011;17936;52.446;10.840;2023-05-10T03:38:57;6.75;;;3.95;;
31308;SDS011;17936;52.446;10.840;2023-05-10T03:41:23;6.10;;;3.33;;
31308;SDS011;17936;52.446;10.840;2023-05-10T03:43:50;5.00;;;3.08;;
31308;SDS011;17936;52.446;10.840;2023-05-10T03:46:15;5.38;;;2.97;;
31308;SDS011;17936;52.446;10.840;2023-05-10T03:48:41;5.10;;;3.17;;
31308;SDS011;17936;52.446;10.840;2023-05-10T03:51:06;4.53;;;3.15;;
31308;SDS011;17936;52.446;10.840;2023-05-10T03:53:34;6.75;;;3.65;;
31308;SDS011;17936;52.446;10.840;2023-05-10T03:56:00;4.85;;;3.42;;
31308;SDS011;17936;52.446;10.840;2023-05-10T03:58:26;5.15;;;3.40;;
31308;SDS011;17936;52.446;10.840;2023-05-10T04:00:51;6.35;;;3.40;;
31308;SDS011;17936;52.446;10.840;2023-05-10T04:03:17;11.20;;;3.80;;
31308;SDS011;17936;52.446;10.840;2023-05-10T04:05:43;5.32;;;3.45;;
31308;SDS011;17936;52.446;10.840;2023-05-10T04:08:08;4.57;;;3.08;;
31308;SDS011;17936;52.446;10.840;2023-05-10T04:10:34;6.05;;;3.40;;
31308;SDS011;17936;52.446;10.840;2023-05-10T04:12:59;7.07;;;3.38;;
31308;SDS011;17936;52.446;10.840;2023-05-10T04:15:25;5.13;;;3.58;;
31308;SDS011;17936;52.446;10.840;2023-05-10T04:17:50;5.20;;;3.40;;
31308;SDS011;17936;52.446;10.840;2023-05-10T04:20:16;5.95;;;3.25;;
31308;SDS011;17936;52.446;10.840;2023-05-10T04:22:42;6.65;;;3.33;;
31308;SDS011;17936;52.446;10.840;2023-05-10T04:25:07;5.18;;;3.40;;
31308;SDS011;17936;52.446;10.840;2023-05-10T04:27:33;4.50;;;3.20;;
31308;SDS011;17936;52.446;10.840;2023-05-10T04:29:59;6.05;;;3.65;;
31308;SDS011;17936;52.446;10.840;2023-05-10T04:32:24;5.80;;;3.35;;
31308;SDS011;17936;52.446;10.840;2023-05-10T04:34:50;5.80;;;3.47;;
31308;SDS011;17936;52.446;10.840;2023-05-10T04:37:18;5.40;;;3.50;;
31308;SDS011;17936;52.446;10.840;2023-05-10T04:39:44;6.57;;;3.25;;
31308;SDS011;17936;52.446;10.840;2023-05-10T04:42:09;5.32;;;3.60;;
31308;SDS011;17936;52.446;10.840;2023-05-10T04:44:35;5.38;;;3.30;;
31308;SDS011;17936;52.446;10.840;2023-05-10T04:47:01;4.22;;;3.00;;
31308;SDS011;17936;52.446;10.840;2023-05-10T04:49:28;5.43;;;3.33;;
31308;SDS011;17936;52.446;10.840;2023-05-10T04:51:54;6.72;;;3.42;;
31308;SDS011;17936;52.446;10.840;2023-05-10T04:54:20;4.47;;;3.00;;
31308;SDS011;17936;52.446;10.840;2023-05-10T04:56:45;5.53;;;3.40;;
31308;SDS011;17936;52.446;10.840;2023-05-10T04:59:11;4.85;;;3.10;;
31308;SDS011;17936;52.446;10.840;2023-05-10T05:01:36;5.22;;;2.92;;
31308;SDS011;17936;52.446;10.840;2023-05-10T05:04:02;7.47;;;3.13;;
31308;SDS011;17936;52.446;10.840;2023-05-10T05:06:27;7.88;;;3.60;;
31308;SDS011;17936;52.446;10.840;2023-05-10T05:08:53;5.53;;;3.08;;
31308;SDS011;17936;52.446;10.840;2023-05-10T05:11:18;4.65;;;2.92;;
31308;SDS011;17936;52.446;10.840;2023-05-10T05:13:44;9.20;;;3.38;;
31308;SDS011;17936;52.446;10.840;2023-05-10T05:16:10;6.75;;;3.60;;
31308;SDS011;17936;52.446;10.840;2023-05-10T05:18:36;8.50;;;3.55;;
31308;SDS011;17936;52.446;10.840;2023-05-10T05:21:01;5.13;;;3.15;;
31308;SDS011;17936;52.446;10.840;2023-05-10T05:23:27;5.70;;;3.33;;
31308;SDS011;17936;52.446;10.840;2023-05-10T05:25:53;5.82;;;3.05;;
31308;SDS011;17936;52.446;10.840;2023-05-10T05:28:19;4.75;;;3.15;;
31308;SDS011;17936;52.446;10.840;2023-05-10T05:30:45;6.88;;;3.17;;
31308;SDS011;17936;52.446;10.840;2023-05-10T05:33:10;4.90;;;3.22;;
31308;SDS011;17936;52.446;10.840;2023-05-10T05:35:37;6.28;;;2.92;;
31308;SDS011;17936;52.446;10.840;2023-05-10T05:38:03;7.72;;;3.28;;
31308;SDS011;17936;52.446;10.840;2023-05-10T05:40:28;4.85;;;3.33;;
31308;SDS011;17936;52.446;10.840;2023-05-10T05:42:54;6.18;;;3.55;;
31308;SDS011;17936;52.446;10.840;2023-05-10T05:45:20;5.13;;;3.22;;
31308;SDS011;17936;52.446;10.840;2023-05-10T05:47:46;5.15;;;2.83;;
31308;SDS011;17936;52.446;10.840;2023-05-10T05:50:12;4.55;;;2.97;;
31308;SDS011;17936;52.446;10.840;2023-05-10T05:52:37;5.05;;;3.38;;
31308;SDS011;17936;52.446;10.840;2023-05-10T05:55:03;5.50;;;3.22;;
31308;SDS011;17936;52.446;10.840;2023-05-10T05:57:29;6.55;;;3.42;;
31308;SDS011;17936;52.446;10.840;2023-05-10T05:59:55;4.25;;;3.05;;
31308;SDS011;17936;52.446;10.840;2023-05-10T06:02:20;4.32;;;2.95;;
31308;SDS011;17936;52.446;10.840;2023-05-10T06:04:46;6.95;;;3.65;;
31308;SDS011;17936;52.446;10.840;2023-05-10T06:07:11;5.00;;;3.10;;
31308;SDS011;17936;52.446;10.840;2023-05-10T06:09:37;5.13;;;3.42;;
31308;SDS011;17936;52.446;10.840;2023-05-10T06:12:02;7.18;;;3.35;;
31308;SDS011;17936;52.446;10.840;2023-05-10T06:14:28;12.57;;;3.60;;
31308;SDS011;17936;52.446;10.840;2023-05-10T06:16:53;9.23;;;3.50;;
31308;SDS011;17936;52.446;10.840;2023-05-10T06:19:19;6.13;;;3.15;;
31308;SDS011;17936;52.446;10.840;2023-05-10T06:21:45;4.72;;;3.08;;
31308;SDS011;17936;52.446;10.840;2023-05-10T06:24:10;5.80;;;3.28;;
31308;SDS011;17936;52.446;10.840;2023-05-10T06:26:35;8.05;;;3.20;;
31308;SDS011;17936;52.446;10.840;2023-05-10T06:29:01;7.88;;;3.95;;
31308;SDS011;17936;52.446;10.840;2023-05-10T06:31:27;6.32;;;3.65;;
31308;SDS011;17936;52.446;10.840;2023-05-10T06:33:52;4.50;;;3.03;;
31308;SDS011;17936;52.446;10.840;2023-05-10T06:36:18;7.22;;;3.13;;
31308;SDS011;17936;52.446;10.840;2023-05-10T06:38:43;5.93;;;3.53;;
31308;SDS011;17936;52.446;10.840;2023-05-10T06:41:09;6.28;;;3.67;;
31308;SDS011;17936;52.446;10.840;2023-05-10T06:43:34;5.35;;;3.25;;
31308;SDS011;17936;52.446;10.840;2023-05-10T06:46:00;6.28;;;3.70;;
31308;SDS011;17936;52.446;10.840;2023-05-10T06:48:25;5.10;;;3.03;;
31308;SDS011;17936;52.446;10.840;2023-05-10T06:50:51;9.57;;;3.60;;
31308;SDS011;17936;52.446;10.840;2023-05-10T06:53:17;6.60;;;3.60;;
31308;SDS011;17936;52.446;10.840;2023-05-10T06:55:42;5.72;;;3.50;;
31308;SDS011;17936;52.446;10.840;2023-05-10T06:58:08;6.00;;;3.38;;
31308;SDS011;17936;52.446;10.840;2023-05-10T07:00:33;7.00;;;3.42;;
31308;SDS011;17936;52.446;10.840;2023-05-10T07:02:59;6.70;;;3.67;;
31308;SDS011;17936;52.446;10.840;2023-05-10T07:05:24;16.73;;;4.03;;
31308;SDS011;17936;52.446;10.840;2023-05-10T07:07:52;5.18;;;3.40;;
31308;SDS011;17936;52.446;10.840;2023-05-10T07:10:18;7.15;;;3.67;;
31308;SDS011;17936;52.446;10.840;2023-05-10T07:12:43;7.78;;;3.70;;
31308;SDS011;17936;52.446;10.840;2023-05-10T07:15:09;6.05;;;3.58;;
31308;SDS011;17936;52.446;10.840;2023-05-10T07:17:34;6.10;;;3.55;;
31308;SDS011;17936;52.446;10.840;2023-05-10T07:20:00;8.45;;;3.65;;
31308;SDS011;17936;52.446;10.840;2023-05-10T07:22:26;6.35;;;3.80;;
31308;SDS011;17936;52.446;10.840;2023-05-10T07:24:51;8.45;;;3.55;;
31308;SDS011;17936;52.446;10.840;2023-05-10T07:27:17;8.07;;;3.97;;
31308;SDS011;17936;52.446;10.840;2023-05-10T07:29:42;6.65;;;3.63;;
31308;SDS011;17936;52.446;10.840;2023-05-10T07:32:08;9.32;;;3.85;;
31308;SDS011;17936;52.446;10.840;2023-05-10T07:34:33;8.32;;;3.88;;
31308;SDS011;17936;52.446;10.840;2023-05-10T07:36:59;8.57;;;3.70;;
31308;SDS011;17936;52.446;10.840;2023-05-10T07:39:25;9.55;;;3.53;;
31308;SDS011;17936;52.446;10.840;2023-05-10T07:41:51;5.18;;;3.47;;
31308;SDS011;17936;52.446;10.840;2023-05-10T07:44:17;6.07;;;3.80;;
31308;SDS011;17936;52.446;10.840;2023-05-10T07:46:45;7.05;;;3.92;;
31308;SDS011;17936;52.446;10.840;2023-05-10T07:49:12;5.32;;;3.47;;
31308;SDS011;17936;52.446;10.840;2023-05-10T07:51:37;6.53;;;3.70;;
31308;SDS011;17936;52.446;10.840;2023-05-10T07:54:03;8.90;;;3.35;;
31308;SDS011;17936;52.446;10.840;2023-05-10T07:56:29;7.50;;;3.35;;
31308;SDS011;17936;52.446;10.840;2023-05-10T07:58:57;16.90;;;4.25;;
31308;SDS011;17936;52.446;10.840;2023-05-10T08:01:26;9.65;;;3.78;;
31308;SDS011;17936;52.446;10.840;2023-05-10T08:03:55;8.13;;;3.53;;
31308;SDS011;17936;52.446;10.840;2023-05-10T08:06:21;5.22;;;3.70;;
31308;SDS011;17936;52.446;10.840;2023-05-10T08:08:47;9.15;;;4.25;;
31308;SDS011;17936;52.446;10.840;2023-05-10T08:11:14;6.75;;;3.65;;
31308;SDS011;17936;52.446;10.840;2023-05-10T08:13:41;6.85;;;4.35;;
31308;SDS011;17936;52.446;10.840;2023-05-10T08:16:06;7.43;;;3.60;;
31308;SDS011;17936;52.446;10.840;2023-05-10T08:18:32;5.30;;;3.67;;
31308;SDS011;17936;52.446;10.840;2023-05-10T08:20:57;7.40;;;3.72;;
31308;SDS011;17936;52.446;10.840;2023-05-10T08:23:23;7.15;;;3.95;;
31308;SDS011;17936;52.446;10.840;2023-05-10T08:25:48;6.68;;;3.63;;
31308;SDS011;17936;52.446;10.840;2023-05-10T08:28:14;8.90;;;3.65;;
31308;SDS011;17936;52.446;10.840;2023-05-10T08:30:39;11.77;;;3.67;;
31308;SDS011;17936;52.446;10.840;2023-05-10T08:33:05;9.82;;;4.10;;
31308;SDS011;17936;52.446;10.840;2023-05-10T08:35:31;6.85;;;4.38;;
31308;SDS011;17936;52.446;10.840;2023-05-10T08:37:58;13.07;;;4.32;;
31308;SDS011;17936;52.446;10.840;2023-05-10T08:40:23;9.57;;;4.13;;
31308;SDS011;17936;52.446;10.840;2023-05-10T08:43:03;9.32;;;4.20;;
31308;SDS011;17936;52.446;10.840;2023-05-10T08:45:32;7.80;;;3.35;;
31308;SDS011;17936;52.446;10.840;2023-05-10T08:48:01;7.20;;;3.95;;
31308;SDS011;17936;52.446;10.840;2023-05-10T08:50:27;6.65;;;3.97;;
31308;SDS011;17936;52.446;10.840;2023-05-10T08:52:55;5.93;;;4.05;;
31308;SDS011;17936;52.446;10.840;2023-05-10T08:55:24;6.38;;;3.92;;
31308;SDS011;17936;52.446;10.840;2023-05-10T08:57:50;6.65;;;3.60;;
31308;SDS011;17936;52.446;10.840;2023-05-10T09:00:16;11.68;;;4.63;;
31308;SDS011;17936;52.446;10.840;2023-05-10T09:02:43;12.15;;;4.35;;
31308;SDS011;17936;52.446;10.840;2023-05-10T09:05:10;6.20;;;4.43;;
31308;SDS011;17936;52.446;10.840;2023-05-10T09:07:37;6.55;;;4.25;;
31308;SDS011;17936;52.446;10.840;2023-05-10T09:10:02;8.18;;;3.92;;
31308;SDS011;17936;52.446;10.840;2023-05-10T09:12:29;4.55;;;3.75;;
31308;SDS011;17936;52.446;10.840;2023-05-10T09:14:55;6.20;;;3.97;;
31308;SDS011;17936;52.446;10.840;2023-05-10T09:17:23;5.90;;;4.07;;
31308;SDS011;17936;52.446;10.840;2023-05-10T09:19:49;9.23;;;4.68;;
31308;SDS011;17936;52.446;10.840;2023-05-10T09:22:21;8.13;;;3.90;;
31308;SDS011;17936;52.446;10.840;2023-05-10T09:24:47;18.90;;;7.20;;
31308;SDS011;17936;52.446;10.840;2023-05-10T09:27:27;9.05;;;4.53;;
31308;SDS011;17936;52.446;10.840;2023-05-10T09:29:53;5.90;;;4.15;;
31308;SDS011;17936;52.446;10.840;2023-05-10T09:32:19;13.80;;;5.68;;
31308;SDS011;17936;52.446;10.840;2023-05-10T09:34:45;5.15;;;3.60;;
31308;SDS011;17936;52.446;10.840;2023-05-10T09:37:14;13.75;;;6.88;;
31308;SDS011;17936;52.446;10.840;2023-05-10T09:39:39;9.65;;;5.18;;
31308;SDS011;17936;52.446;10.840;2023-05-10T09:42:07;7.82;;;4.53;;
31308;SDS011;17936;52.446;10.840;2023-05-10T09:44:34;5.85;;;4.10;;
31308;SDS011;17936;52.446;10.840;2023-05-10T09:47:02;7.97;;;4.28;;
31308;SDS011;17936;52.446;10.840;2023-05-10T09:49:28;6.15;;;3.97;;
31308;SDS011;17936;52.446;10.840;2023-05-10T09:51:59;5.82;;;4.30;;
31308;SDS011;17936;52.446;10.840;2023-05-10T09:54:32;10.65;;;5.88;;
31308;SDS011;17936;52.446;10.840;2023-05-10T09:56:58;8.00;;;4.53;;
31308;SDS011;17936;52.446;10.840;2023-05-10T09:59:25;6.72;;;4.30;;
31308;SDS011;17936;52.446;10.840;2023-05-10T10:01:52;6.47;;;4.50;;
31308;SDS011;17936;52.446;10.840;2023-05-10T10:04:20;6.43;;;4.65;;
31308;SDS011;17936;52.446;10.840;2023-05-10T10:06:46;5.97;;;4.38;;
31308;SDS011;17936;52.446;10.840;2023-05-10T10:09:22;7.90;;;4.43;;
31308;SDS011;17936;52.446;10.840;2023-05-10T10:11:48;7.28;;;5.25;;
31308;SDS011;17936;52.446;10.840;2023-05-10T10:14:14;7.28;;;4.53;;
31308;SDS011;17936;52.446;10.840;2023-05-10T10:16:40;7.40;;;4.80;;
31308;SDS011;17936;52.446;10.840;2023-05-10T10:19:06;6.70;;;4.25;;
31308;SDS011;17936;52.446;10.840;2023-05-10T10:21:32;7.25;;;5.03;;
31308;SDS011;17936;52.446;10.840;2023-05-10T10:23:58;8.10;;;4.72;;
31308;SDS011;17936;52.446;10.840;2023-05-10T10:26:23;5.68;;;4.38;;
31308;SDS011;17936;52.446;10.840;2023-05-10T10:34:36;5.65;;;4.47;;
31308;SDS011;17936;52.446;10.840;2023-05-10T10:37:04;6.30;;;4.45;;
31308;SDS011;17936;52.446;10.840;2023-05-10T10:39:31;7.07;;;4.88;;
31308;SDS011;17936;52.446;10.840;2023-05-10T10:41:57;7.88;;;4.18;;
31308;SDS011;17936;52.446;10.840;2023-05-10T10:47:00;6.07;;;4.32;;
31308;SDS011;17936;52.446;10.840;2023-05-10T10:55:15;8.23;;;4.25;;
31308;SDS011;17936;52.446;10.840;2023-05-10T11:02:45;6.43;;;4.13;;
31308;SDS011;17936;52.446;10.840;2023-05-10T11:05:23;7.03;;;4.03;;
31308;SDS011;17936;52.446;10.840;2023-05-10T11:07:58;5.88;;;4.07;;
31308;SDS011;17936;52.446;10.840;2023-05-10T11:10:25;5.47;;;4.30;;
31308;SDS011;17936;52.446;10.840;2023-05-10T11:12:52;4.78;;;3.25;;
31308;SDS011;17936;52.446;10.840;2023-05-10T11:15:29;4.97;;;3.17;;
31308;SDS011;17936;52.446;10.840;2023-05-10T11:17:58;5.05;;;2.88;;
31308;SDS011;17936;52.446;10.840;2023-05-10T11:20:27;4.07;;;2.95;;
31308;SDS011;17936;52.446;10.840;2023-05-10T11:22:58;4.55;;;2.63;;
31308;SDS011;17936;52.446;10.840;2023-05-10T11:25:39;4.40;;;2.67;;
31308;SDS011;17936;52.446;10.840;2023-05-10T11:28:09;3.70;;;2.70;;
31308;SDS011;17936;52.446;10.840;2023-05-10T11:30:36;3.22;;;2.38;;
31308;SDS011;17936;52.446;10.840;2023-05-10T11:33:03;5.78;;;2.75;;
31308;SDS011;17936;52.446;10.840;2023-05-10T11:35:28;4.00;;;2.58;;
31308;SDS011;17936;52.446;10.840;2023-05-10T11:37:54;3.25;;;2.50;;
31308;SDS011;17936;52.446;10.840;2023-05-10T11:40:22;4.82;;;2.42;;
31308;SDS011;17936;52.446;10.840;2023-05-10T11:42:51;3.93;;;2.57;;
31308;SDS011;17936;52.446;10.840;2023-05-10T11:45:17;3.45;;;2.28;;
31308;SDS011;17936;52.446;10.840;2023-05-10T11:47:42;3.92;;;2.15;;
31308;SDS011;17936;52.446;10.840;2023-05-10T11:50:08;3.40;;;2.35;;
31308;SDS011;17936;52.446;10.840;2023-05-10T11:52:36;2.88;;;2.17;;
31308;SDS011;17936;52.446;10.840;2023-05-10T11:55:04;2.30;;;2.10;;
31308;SDS011;17936;52.446;10.840;2023-05-10T11:57:30;2.22;;;1.80;;
31308;SDS011;17936;52.446;10.840;2023-05-10T11:59:56;3.05;;;1.80;;
31308;SDS011;17936;52.446;10.840;2023-05-10T12:02:22;4.25;;;1.88;;
31308;SDS011;17936;52.446;10.840;2023-05-10T12:04:48;5.78;;;2.10;;
31308;SDS011;17936;52.446;10.840;2023-05-10T12:07:15;2.55;;;1.90;;
31308;SDS011;17936;52.446;10.840;2023-05-10T12:09:44;5.50;;;2.08;;
31308;SDS011;17936;52.446;10.840;2023-05-10T12:12:26;2.72;;;1.92;;
31308;SDS011;17936;52.446;10.840;2023-05-10T12:14:52;2.42;;;1.35;;
31308;SDS011;17936;52.446;10.840;2023-05-10T12:17:17;1.88;;;0.77;;
31308;SDS011;17936;52.446;10.840;2023-05-10T12:19:43;1.00;;;0.73;;
31308;SDS011;17936;52.446;10.840;2023-05-10T12:22:08;2.58;;;0.77;;
31308;SDS011;17936;52.446;10.840;2023-05-10T12:24:37;0.73;;;0.52;;
31308;SDS011;17936;52.446;10.840;2023-05-10T12:27:09;2.60;;;0.90;;
31308;SDS011;17936;52.446;10.840;2023-05-10T12:29:37;0.60;;;0.55;;
31308;SDS011;17936;52.446;10.840;2023-05-10T12:32:08;1.43;;;0.60;;
31308;SDS011;17936;52.446;10.840;2023-05-10T12:34:34;1.17;;;0.60;;
31308;SDS011;17936;52.446;10.840;2023-05-10T12:37:01;0.73;;;0.50;;
31308;SDS011;17936;52.446;10.840;2023-05-10T12:39:38;0.60;;;0.50;;
31308;SDS011;17936;52.446;10.840;2023-05-10T12:42:07;0.52;;;0.52;;
31308;SDS011;17936;52.446;10.840;2023-05-10T12:44:33;0.65;;;0.50;;
31308;SDS011;17936;52.446;10.840;2023-05-10T12:46:58;1.10;;;0.73;;
31308;SDS011;17936;52.446;10.840;2023-05-10T12:49:24;0.60;;;0.60;;
31308;SDS011;17936;52.446;10.840;2023-05-10T12:51:49;0.75;;;0.60;;
31308;SDS011;17936;52.446;10.840;2023-05-10T12:54:15;2.25;;;0.80;;
31308;SDS011;17936;52.446;10.840;2023-05-10T12:56:40;2.80;;;0.77;;
31308;SDS011;17936;52.446;10.840;2023-05-10T12:59:07;0.55;;;0.47;;
31308;SDS011;17936;52.446;10.840;2023-05-10T13:01:33;0.82;;;0.60;;
31308;SDS011;17936;52.446;10.840;2023-05-10T13:03:58;0.80;;;0.50;;
31308;SDS011;17936;52.446;10.840;2023-05-10T13:06:25;0.95;;;0.50;;
31308;SDS011;17936;52.446;10.840;2023-05-10T13:08:50;1.27;;;0.57;;
31308;SDS011;17936;52.446;10.840;2023-05-10T13:11:16;1.95;;;0.73;;
31308;SDS011;17936;52.446;10.840;2023-05-10T13:13:44;0.95;;;0.50;;
31308;SDS011;17936;52.446;10.840;2023-05-10T13:16:10;1.15;;;0.70;;
31308;SDS011;17936;52.446;10.840;2023-05-10T13:18:35;1.98;;;0.90;;
31308;SDS011;17936;52.446;10.840;2023-05-10T13:21:01;1.83;;;0.60;;
31308;SDS011;17936;52.446;10.840;2023-05-10T13:23:28;1.15;;;0.50;;
31308;SDS011;17936;52.446;10.840;2023-05-10T13:25:54;1.25;;;0.52;;
31308;SDS011;17936;52.446;10.840;2023-05-10T13:28:19;0.75;;;0.50;;
31308;SDS011;17936;52.446;10.840;2023-05-10T13:30:45;1.48;;;0.65;;
31308;SDS011;17936;52.446;10.840;2023-05-10T13:33:10;1.67;;;0.60;;
31308;SDS011;17936;52.446;10.840;2023-05-10T13:35:36;0.77;;;0.52;;
31308;SDS011;17936;52.446;10.840;2023-05-10T13:38:01;0.80;;;0.70;;
31308;SDS011;17936;52.446;10.840;2023-05-10T13:40:27;2.50;;;0.82;;
31308;SDS011;17936;52.446;10.840;2023-05-10T13:42:53;0.60;;;0.60;;
31308;SDS011;17936;52.446;10.840;2023-05-10T13:45:18;6.53;;;1.33;;
31308;SDS011;17936;52.446;10.840;2023-05-10T13:47:44;1.15;;;0.40;;
31308;SDS011;17936;52.446;10.840;2023-05-10T13:50:10;1.00;;;0.70;;
31308;SDS011;17936;52.446;10.840;2023-05-10T13:52:35;1.02;;;0.43;;
31308;SDS011;17936;52.446;10.840;2023-05-10T13:55:00;1.08;;;0.70;;
31308;SDS011;17936;52.446;10.840;2023-05-10T13:57:26;1.05;;;0.50;;
31308;SDS011;17936;52.446;10.840;2023-05-10T13:59:53;1.58;;;0.50;;
31308;SDS011;17936;52.446;10.840;2023-05-10T14:02:19;0.50;;;0.50;;
31308;SDS011;17936;52.446;10.840;2023-05-10T14:04:44;1.95;;;0.60;;
31308;SDS011;17936;52.446;10.840;2023-05-10T14:07:10;1.35;;;0.70;;
31308;SDS011;17936;52.446;10.840;2023-05-10T14:09:36;0.70;;;0.70;;
31308;SDS011;17936;52.446;10.840;2023-05-10T14:12:01;2.42;;;0.88;;
31308;SDS011;17936;52.446;10.840;2023-05-10T14:14:27;0.43;;;0.40;;
31308;SDS011;17936;52.446;10.840;2023-05-10T14:16:54;1.08;;;1.00;;
31308;SDS011;17936;52.446;10.840;2023-05-10T14:19:19;1.08;;;0.80;;
31308;SDS011;17936;52.446;10.840;2023-05-10T14:21:45;1.90;;;0.90;;
31308;SDS011;17936;52.446;10.840;2023-05-10T14:24:10;1.60;;;0.90;;
31308;SDS011;17936;52.446;10.840;2023-05-10T14:26:36;1.77;;;0.88;;
31308;SDS011;17936;52.446;10.840;2023-05-10T14:29:02;3.20;;;1.00;;
31308;SDS011;17936;52.446;10.840;2023-05-10T14:31:27;2.10;;;1.10;;
31308;SDS011;17936;52.446;10.840;2023-05-10T14:33:55;1.45;;;0.77;;
31308;SDS011;17936;52.446;10.840;2023-05-10T14:36:20;0.90;;;0.77;;
31308;SDS011;17936;52.446;10.840;2023-05-10T14:38:46;1.60;;;0.82;;
31308;SDS011;17936;52.446;10.840;2023-05-10T14:41:11;1.20;;;0.80;;
31308;SDS011;17936;52.446;10.840;2023-05-10T14:43:39;1.42;;;0.80;;
31308;SDS011;17936;52.446;10.840;2023-05-10T14:46:06;1.20;;;1.00;;
31308;SDS011;17936;52.446;10.840;2023-05-10T14:48:31;3.30;;;1.08;;
31308;SDS011;17936;52.446;10.840;2023-05-10T14:50:57;1.75;;;0.90;;
31308;SDS011;17936;52.446;10.840;2023-05-10T14:53:22;1.20;;;0.68;;
31308;SDS011;17936;52.446;10.840;2023-05-10T14:55:47;2.03;;;0.93;;
31308;SDS011;17936;52.446;10.840;2023-05-10T14:58:13;2.83;;;1.00;;
31308;SDS011;17936;52.446;10.840;2023-05-10T15:00:38;2.08;;;0.93;;
31308;SDS011;17936;52.446;10.840;2023-05-10T15:03:05;3.33;;;0.82;;
31308;SDS011;17936;52.446;10.840;2023-05-10T15:05:30;0.93;;;0.73;;